Terminal Aerodrome Forecast
Issued by NWS

Home | Current Version | Previous Version | Text Only | Print | Product List | Glossary On
Versions: 1 2 3 4 5 6 7 8 9 10 11 12 13 14 15
603
FTUS44 KJAN 222336
TAFHKS
TAF
KHKS 222336Z 2300/2324 30005KT P6SM -RA SCT015 BKN120
     FM231100 33006KT P6SM BKN008
     FM231300 32007KT P6SM BKN015
     FM231500 32010G16KT P6SM FEW025=

USA.gov is the U.S. government's official web portal to all federal, state and local government web resources and services.